MSC Susanna — 3ECU4 — position and weather

sailwx.info

Track history (hours):
 
Tides and Currents Weather Stations Pressure Air Temp Water Temp Dewpoint Dewpoint Depression Visibility Wind Speed Wind Dir Waves Ship Positions

MSC Susanna

Last reported at 2014-Aug-20 01:33 UTC. Time now 2014-Aug-20 14:38 UTC.
Position N 35°59' W 005°21'.

Length 337 m; draft 11.5 m.

Type: Ship (hazmat cat A). MMSI: 371466000.

Date/timePositionNaut miles runAvg speedWind from/ knotsBaromVisibWave heightAir tempDewpointWater temp
2014-Aug-20 01:33N 35°59' W 005°21'17313.3
2014-Aug-19 12:33N 36°28' W 008°53'1413.6
2014-Aug-19 11:33N 36°32' W 009°09'1313.1
2014-Aug-19 10:34N 36°38' W 009°23'1313.3
2014-Aug-19 09:34N 36°49' W 009°33'1313.2
2014-Aug-19 08:34N 37°02' W 009°37'1313.2
2014-Aug-19 07:33N 37°15' W 009°41'1413.7
2014-Aug-19 06:31N 37°29' W 009°45'  
2014-Aug-16 16:21N 50°25' W 000°31'1517.1
2014-Aug-16 15:27N 50°29' W 000°08'1616.3
2014-Aug-16 14:30N 50°33' E 000°16'1415.2
2014-Aug-16 13:33N 50°38' E 000°37'1414.3
2014-Aug-16 12:33N 50°47' E 000°55'1815.9
2014-Aug-16 11:26N 50°59' E 001°15'1921.4
2014-Aug-16 10:33N 51°10' E 001°40'2019.8
2014-Aug-16 09:33N 51°25' E 002°01'1918.2
2014-Aug-16 08:32N 51°23' E 002°31'1414.3
2014-Aug-16 07:34N 51°25' E 002°53'1515.3
2014-Aug-16 06:33N 51°25' E 003°17'1211.5
2014-Aug-16 05:33N 51°26' E 003°36'1111.0
2014-Aug-16 04:34N 51°21' E 003°51'7 7.2
2014-Aug-16 03:34N 51°23' E 004°02'9 9.1
2014-Aug-16 02:33N 51°21' E 004°16'1 0.5
2014-Aug-16 01:34N 51°21' E 004°17'2 1.9
2014-Aug-16 00:33N 51°19' E 004°20'0 0.0
2014-Aug-15 23:33N 51°19' E 004°20'0 0.0
2014-Aug-15 22:33N 51°19' E 004°20'0 0.0
2014-Aug-15 21:33N 51°19' E 004°20'0 0.0
2014-Aug-15 20:30N 51°19' E 004°20'0 0.0
2014-Aug-15 19:30N 51°19' E 004°20'0 0.0
2014-Aug-15 18:33N 51°19' E 004°20'0 0.0
2014-Aug-15 17:33N 51°19' E 004°20'0 0.0
2014-Aug-15 16:33N 51°19' E 004°20'0 0.0
2014-Aug-15 15:30N 51°19' E 004°20'0 0.0
2014-Aug-15 14:33N 51°19' E 004°20'0 0.0
2014-Aug-15 13:33N 51°19' E 004°20'0 0.0
2014-Aug-15 12:33N 51°19' E 004°20'0 0.0
2014-Aug-15 11:33N 51°19' E 004°20'0 0.0
2014-Aug-15 10:33N 51°19' E 004°20'0 0.0
2014-Aug-15 09:33N 51°19' E 004°20'0 0.0
2014-Aug-15 08:29N 51°19' E 004°20'0 0.0
2014-Aug-15 07:32N 51°19' E 004°20'0 0.0
2014-Aug-15 06:29N 51°19' E 004°20'0 0.0
2014-Aug-15 05:32N 51°19' E 004°20'0 0.0
2014-Aug-15 04:29N 51°19' E 004°20'0 0.0
2014-Aug-15 03:26N 51°19' E 004°20'0 0.0
2014-Aug-15 02:32N 51°19' E 004°20'0 0.0
2014-Aug-15 01:29N 51°19' E 004°20'0 0.0
2014-Aug-15 00:29N 51°19' E 004°20'0 0.0
2014-Aug-14 23:29N 51°19' E 004°20'0 0.0
2014-Aug-14 22:32N 51°19' E 004°20'0 0.0
2014-Aug-14 21:32N 51°19' E 004°20'1 0.7
2014-Aug-14 20:34N 51°20' E 004°18'1 1.3
2014-Aug-14 19:33N 51°21' E 004°17'2 1.8
2014-Aug-14 18:33N 51°21' E 004°14'7 7.4
2014-Aug-14 17:33N 51°23' E 004°03'6 5.7
2014-Aug-14 16:33N 51°21' E 003°54'1111.5
2014-Aug-14 15:33N 51°26' E 003°37'1313.1
2014-Aug-14 14:33N 51°25' E 003°16'10 8.5
2014-Aug-14 13:24N 51°33' E 003°07'1315.4
2014-Aug-14 12:32N 51°45' E 003°13'6 5.7
2014-Aug-14 11:33N 51°51' E 003°17'3818.8
2014-Aug-14 09:33N 52°28' E 003°27'17417.4
2014-Aug-13 23:33N 54°00' E 007°33'1717.0
2014-Aug-13 22:33N 54°01' E 008°02'1212.5
2014-Aug-13 21:33N 53°59' E 008°23'1514.8
2014-Aug-13 20:33N 53°52' E 008°45'1514.7
2014-Aug-13 19:33N 53°53' E 009°10'1414.5
2014-Aug-13 18:33N 53°43' E 009°28'1312.7
2014-Aug-13 17:33N 53°34' E 009°42'7 7.4
2014-Aug-13 16:33N 53°32' E 009°54'0 0.0
2014-Aug-13 15:32N 53°32' E 009°54'0 0.0
2014-Aug-13 14:32N 53°32' E 009°54'0 0.0
2014-Aug-13 13:32N 53°32' E 009°54'0 0.0
2014-Aug-13 12:32N 53°32' E 009°54'0 0.0
2014-Aug-13 11:32N 53°32' E 009°54'0 0.0
2014-Aug-13 10:32N 53°32' E 009°54'0 0.0
2014-Aug-13 09:32N 53°32' E 009°54'0 0.0
2014-Aug-13 08:32N 53°32' E 009°54'0 0.0
2014-Aug-13 07:26N 53°32' E 009°54'0 0.0
2014-Aug-13 06:29N 53°32' E 009°54'0 0.0
2014-Aug-13 05:32N 53°32' E 009°54'0 0.0
2014-Aug-13 04:29N 53°32' E 009°54'0 0.0
2014-Aug-13 03:26N 53°32' E 009°54'0 0.0
2014-Aug-13 02:29N 53°32' E 009°54'0 0.0
2014-Aug-13 01:29N 53°32' E 009°54'0 0.0
2014-Aug-13 00:29N 53°32' E 009°54'0 0.0
2014-Aug-12 23:32N 53°32' E 009°54'0 0.0
2014-Aug-12 22:32N 53°32' E 009°54'0 0.0
2014-Aug-12 21:32N 53°32' E 009°54'0 0.0
2014-Aug-12 20:32N 53°32' E 009°54'0 0.0
2014-Aug-12 19:32N 53°32' E 009°54'0 0.0
2014-Aug-12 18:32N 53°32' E 009°54'0 0.5
2014-Aug-12 17:33N 53°32' E 009°54'8 8.4
2014-Aug-12 16:34N 53°34' E 009°40'1211.7
2014-Aug-12 15:34N 53°43' E 009°28'1413.7
2014-Aug-12 14:33N 53°53' E 009°11'1414.3
2014-Aug-12 13:33N 53°50' E 008°47'1515.5
2014-Aug-12 12:33N 53°59' E 008°25'1111.1
2014-Aug-12 11:33N 54°01' E 008°07'4 3.7
2014-Aug-12 10:33N 53°59' E 008°01'5317.4
2014-Aug-12 07:32N 53°47' E 006°34'1717.4
2014-Aug-12 06:32N 53°42' E 006°06'1414.0
2014-Aug-12 05:34N 53°38' E 005°44'1110.9
2014-Aug-12 04:33N 53°34' E 005°27'1010.3
2014-Aug-12 03:33N 53°31' E 005°10'9 9.4
2014-Aug-12 02:34N 53°28' E 004°55'9 8.6
2014-Aug-12 01:33N 53°24' E 004°43'8 8.5
2014-Aug-12 00:34N 53°16' E 004°36'9 8.7
2014-Aug-11 23:30N 53°08' E 004°29'8 8.8
2014-Aug-11 22:34N 53°01' E 004°23'9 8.6
2014-Aug-11 21:33N 52°53' E 004°16'9 9.0
2014-Aug-11 20:34N 52°46' E 004°07'9 9.2
2014-Aug-11 19:33N 52°39' E 003°56'10 9.7
2014-Aug-11 18:34N 52°32' E 003°45'1010.4
2014-Aug-11 17:33N 52°25' E 003°33'6813.5
2014-Aug-11 12:33N 51°50' E 001°59'1515.3
2014-Aug-11 11:33N 51°52' E 001°34'1110.5
2014-Aug-11 10:33N 51°57' E 001°19'2 1.6
2014-Aug-11 09:31N 51°58' E 001°17'0 0.0
2014-Aug-11 08:31N 51°58' E 001°17'0 0.0
2014-Aug-11 07:31N 51°58' E 001°17'0 0.0
2014-Aug-11 06:31N 51°58' E 001°17'0 0.0
2014-Aug-11 05:31N 51°58' E 001°17'0 0.0
2014-Aug-11 04:31N 51°58' E 001°17'0 0.0
2014-Aug-11 03:31N 51°58' E 001°17'0 0.0
2014-Aug-11 02:31N 51°58' E 001°17'0 0.0
2014-Aug-11 01:31N 51°58' E 001°17'0 0.0
2014-Aug-11 00:31N 51°58' E 001°17'0 0.0
2014-Aug-10 23:31N 51°58' E 001°17'0 0.0
2014-Aug-10 22:31N 51°58' E 001°17'0 0.0
2014-Aug-10 21:31N 51°58' E 001°17'0 0.0
2014-Aug-10 20:31N 51°58' E 001°17'0 0.0
2014-Aug-10 19:31N 51°58' E 001°17'0 0.0
2014-Aug-10 18:31N 51°58' E 001°17'0 0.0
2014-Aug-10 17:31N 51°58' E 001°17'0 0.0
2014-Aug-10 16:33N 51°58' E 001°17'0 0.0
2014-Aug-10 15:33N 51°58' E 001°17'0 0.0
2014-Aug-10 14:33N 51°58' E 001°17'0 0.0
2014-Aug-10 13:33N 51°58' E 001°17'0 0.0
2014-Aug-10 12:33N 51°58' E 001°17'0 0.0
2014-Aug-10 11:33N 51°58' E 001°17'0 0.0
2014-Aug-10 10:33N 51°58' E 001°17'0 0.0
2014-Aug-10 09:33N 51°58' E 001°17'1 1.1
2014-Aug-10 08:33N 51°57' E 001°18'1010.3
2014-Aug-10 07:33N 51°53' E 001°34'6 5.9
2014-Aug-10 06:33N 51°51' E 001°43'9 8.9
2014-Aug-10 05:33N 51°43' E 001°49'1514.9
2014-Aug-10 04:33N 51°30' E 001°58'1616.2
2014-Aug-10 03:33N 51°14' E 001°50'1919.3
2014-Aug-10 02:34N 50°59' E 001°31'1919.1
2014-Aug-10 01:33N 50°41' E 001°19'  
Track history (hours):
 
Tides and Currents Weather Stations Pressure Air Temp Water Temp Dewpoint Dewpoint Depression Visibility Wind Speed Wind Dir Waves Ship Positions

MSC Susanna

Last reported at 2014-Aug-20 01:33 UTC. Time now 2014-Aug-20 14:38 UTC.
Position N 35°59' W 005°21'.

Length 337 m; draft 11.5 m.

Type: Ship (hazmat cat A). MMSI: 371466000.

Date/timePositionNaut miles runAvg speedWind from/ knotsBaromVisibWave heightAir tempDewpointWater temp
2014-Aug-20 01:33N 35°59' W 005°21'17313.3
2014-Aug-19 12:33N 36°28' W 008°53'1413.6
2014-Aug-19 11:33N 36°32' W 009°09'1313.1
2014-Aug-19 10:34N 36°38' W 009°23'1313.3
2014-Aug-19 09:34N 36°49' W 009°33'1313.2
2014-Aug-19 08:34N 37°02' W 009°37'1313.2
2014-Aug-19 07:33N 37°15' W 009°41'1413.7
2014-Aug-19 06:31N 37°29' W 009°45'  
2014-Aug-16 16:21N 50°25' W 000°31'1517.1
2014-Aug-16 15:27N 50°29' W 000°08'1616.3
2014-Aug-16 14:30N 50°33' E 000°16'1415.2
2014-Aug-16 13:33N 50°38' E 000°37'1414.3
2014-Aug-16 12:33N 50°47' E 000°55'1815.9
2014-Aug-16 11:26N 50°59' E 001°15'1921.4
2014-Aug-16 10:33N 51°10' E 001°40'2019.8
2014-Aug-16 09:33N 51°25' E 002°01'1918.2
2014-Aug-16 08:32N 51°23' E 002°31'1414.3
2014-Aug-16 07:34N 51°25' E 002°53'1515.3
2014-Aug-16 06:33N 51°25' E 003°17'1211.5
2014-Aug-16 05:33N 51°26' E 003°36'1111.0
2014-Aug-16 04:34N 51°21' E 003°51'7 7.2
2014-Aug-16 03:34N 51°23' E 004°02'9 9.1
2014-Aug-16 02:33N 51°21' E 004°16'1 0.5
2014-Aug-16 01:34N 51°21' E 004°17'2 1.9
2014-Aug-16 00:33N 51°19' E 004°20'0 0.0
2014-Aug-15 23:33N 51°19' E 004°20'0 0.0
2014-Aug-15 22:33N 51°19' E 004°20'0 0.0
2014-Aug-15 21:33N 51°19' E 004°20'0 0.0
2014-Aug-15 20:30N 51°19' E 004°20'0 0.0
2014-Aug-15 19:30N 51°19' E 004°20'0 0.0
2014-Aug-15 18:33N 51°19' E 004°20'0 0.0
2014-Aug-15 17:33N 51°19' E 004°20'0 0.0
2014-Aug-15 16:33N 51°19' E 004°20'0 0.0
2014-Aug-15 15:30N 51°19' E 004°20'0 0.0
2014-Aug-15 14:33N 51°19' E 004°20'0 0.0
2014-Aug-15 13:33N 51°19' E 004°20'0 0.0
2014-Aug-15 12:33N 51°19' E 004°20'0 0.0
2014-Aug-15 11:33N 51°19' E 004°20'0 0.0
2014-Aug-15 10:33N 51°19' E 004°20'0 0.0
2014-Aug-15 09:33N 51°19' E 004°20'0 0.0
2014-Aug-15 08:29N 51°19' E 004°20'0 0.0
2014-Aug-15 07:32N 51°19' E 004°20'0 0.0
2014-Aug-15 06:29N 51°19' E 004°20'0 0.0
2014-Aug-15 05:32N 51°19' E 004°20'0 0.0
2014-Aug-15 04:29N 51°19' E 004°20'0 0.0
2014-Aug-15 03:26N 51°19' E 004°20'0 0.0
2014-Aug-15 02:32N 51°19' E 004°20'0 0.0
2014-Aug-15 01:29N 51°19' E 004°20'0 0.0
2014-Aug-15 00:29N 51°19' E 004°20'0 0.0
2014-Aug-14 23:29N 51°19' E 004°20'0 0.0
2014-Aug-14 22:32N 51°19' E 004°20'0 0.0
2014-Aug-14 21:32N 51°19' E 004°20'1 0.7
2014-Aug-14 20:34N 51°20' E 004°18'1 1.3
2014-Aug-14 19:33N 51°21' E 004°17'2 1.8
2014-Aug-14 18:33N 51°21' E 004°14'7 7.4
2014-Aug-14 17:33N 51°23' E 004°03'6 5.7
2014-Aug-14 16:33N 51°21' E 003°54'1111.5
2014-Aug-14 15:33N 51°26' E 003°37'1313.1
2014-Aug-14 14:33N 51°25' E 003°16'10 8.5
2014-Aug-14 13:24N 51°33' E 003°07'1315.4
2014-Aug-14 12:32N 51°45' E 003°13'6 5.7
2014-Aug-14 11:33N 51°51' E 003°17'3818.8
2014-Aug-14 09:33N 52°28' E 003°27'17417.4
2014-Aug-13 23:33N 54°00' E 007°33'1717.0
2014-Aug-13 22:33N 54°01' E 008°02'1212.5
2014-Aug-13 21:33N 53°59' E 008°23'1514.8
2014-Aug-13 20:33N 53°52' E 008°45'1514.7
2014-Aug-13 19:33N 53°53' E 009°10'1414.5
2014-Aug-13 18:33N 53°43' E 009°28'1312.7
2014-Aug-13 17:33N 53°34' E 009°42'7 7.4
2014-Aug-13 16:33N 53°32' E 009°54'0 0.0
2014-Aug-13 15:32N 53°32' E 009°54'0 0.0
2014-Aug-13 14:32N 53°32' E 009°54'0 0.0
2014-Aug-13 13:32N 53°32' E 009°54'0 0.0
2014-Aug-13 12:32N 53°32' E 009°54'0 0.0
2014-Aug-13 11:32N 53°32' E 009°54'0 0.0
2014-Aug-13 10:32N 53°32' E 009°54'0 0.0
2014-Aug-13 09:32N 53°32' E 009°54'0 0.0
2014-Aug-13 08:32N 53°32' E 009°54'0 0.0
2014-Aug-13 07:26N 53°32' E 009°54'0 0.0
2014-Aug-13 06:29N 53°32' E 009°54'0 0.0
2014-Aug-13 05:32N 53°32' E 009°54'0 0.0
2014-Aug-13 04:29N 53°32' E 009°54'0 0.0
2014-Aug-13 03:26N 53°32' E 009°54'0 0.0
2014-Aug-13 02:29N 53°32' E 009°54'0 0.0
2014-Aug-13 01:29N 53°32' E 009°54'0 0.0
2014-Aug-13 00:29N 53°32' E 009°54'0 0.0
2014-Aug-12 23:32N 53°32' E 009°54'0 0.0
2014-Aug-12 22:32N 53°32' E 009°54'0 0.0
2014-Aug-12 21:32N 53°32' E 009°54'0 0.0
2014-Aug-12 20:32N 53°32' E 009°54'0 0.0
2014-Aug-12 19:32N 53°32' E 009°54'0 0.0
2014-Aug-12 18:32N 53°32' E 009°54'0 0.5
2014-Aug-12 17:33N 53°32' E 009°54'8 8.4
2014-Aug-12 16:34N 53°34' E 009°40'1211.7
2014-Aug-12 15:34N 53°43' E 009°28'1413.7
2014-Aug-12 14:33N 53°53' E 009°11'1414.3
2014-Aug-12 13:33N 53°50' E 008°47'1515.5
2014-Aug-12 12:33N 53°59' E 008°25'1111.1
2014-Aug-12 11:33N 54°01' E 008°07'4 3.7
2014-Aug-12 10:33N 53°59' E 008°01'5317.4
2014-Aug-12 07:32N 53°47' E 006°34'1717.4
2014-Aug-12 06:32N 53°42' E 006°06'1414.0
2014-Aug-12 05:34N 53°38' E 005°44'1110.9
2014-Aug-12 04:33N 53°34' E 005°27'1010.3
2014-Aug-12 03:33N 53°31' E 005°10'9 9.4
2014-Aug-12 02:34N 53°28' E 004°55'9 8.6
2014-Aug-12 01:33N 53°24' E 004°43'8 8.5
2014-Aug-12 00:34N 53°16' E 004°36'9 8.7
2014-Aug-11 23:30N 53°08' E 004°29'8 8.8
2014-Aug-11 22:34N 53°01' E 004°23'9 8.6
2014-Aug-11 21:33N 52°53' E 004°16'9 9.0
2014-Aug-11 20:34N 52°46' E 004°07'9 9.2
2014-Aug-11 19:33N 52°39' E 003°56'10 9.7
2014-Aug-11 18:34N 52°32' E 003°45'1010.4
2014-Aug-11 17:33N 52°25' E 003°33'6813.5
2014-Aug-11 12:33N 51°50' E 001°59'1515.3
2014-Aug-11 11:33N 51°52' E 001°34'1110.5
2014-Aug-11 10:33N 51°57' E 001°19'2 1.6
2014-Aug-11 09:31N 51°58' E 001°17'0 0.0
2014-Aug-11 08:31N 51°58' E 001°17'0 0.0
2014-Aug-11 07:31N 51°58' E 001°17'0 0.0
2014-Aug-11 06:31N 51°58' E 001°17'0 0.0
2014-Aug-11 05:31N 51°58' E 001°17'0 0.0
2014-Aug-11 04:31N 51°58' E 001°17'0 0.0
2014-Aug-11 03:31N 51°58' E 001°17'0 0.0
2014-Aug-11 02:31N 51°58' E 001°17'0 0.0
2014-Aug-11 01:31N 51°58' E 001°17'0 0.0
2014-Aug-11 00:31N 51°58' E 001°17'0 0.0
2014-Aug-10 23:31N 51°58' E 001°17'0 0.0
2014-Aug-10 22:31N 51°58' E 001°17'0 0.0
2014-Aug-10 21:31N 51°58' E 001°17'0 0.0
2014-Aug-10 20:31N 51°58' E 001°17'0 0.0
2014-Aug-10 19:31N 51°58' E 001°17'0 0.0
2014-Aug-10 18:31N 51°58' E 001°17'0 0.0
2014-Aug-10 17:31N 51°58' E 001°17'0 0.0
2014-Aug-10 16:33N 51°58' E 001°17'0 0.0
2014-Aug-10 15:33N 51°58' E 001°17'0 0.0
2014-Aug-10 14:33N 51°58' E 001°17'0 0.0
2014-Aug-10 13:33N 51°58' E 001°17'0 0.0
2014-Aug-10 12:33N 51°58' E 001°17'0 0.0
2014-Aug-10 11:33N 51°58' E 001°17'0 0.0
2014-Aug-10 10:33N 51°58' E 001°17'0 0.0
2014-Aug-10 09:33N 51°58' E 001°17'1 1.1
2014-Aug-10 08:33N 51°57' E 001°18'1010.3
2014-Aug-10 07:33N 51°53' E 001°34'6 5.9
2014-Aug-10 06:33N 51°51' E 001°43'9 8.9
2014-Aug-10 05:33N 51°43' E 001°49'1514.9
2014-Aug-10 04:33N 51°30' E 001°58'1616.2
2014-Aug-10 03:33N 51°14' E 001°50'1919.3
2014-Aug-10 02:34N 50°59' E 001°31'1919.1
2014-Aug-10 01:33N 50°41' E 001°19'  

Dump ship's entire track history